TFM - Tactical Decision Aid
ID: Runway Winds: CIG/VIS Threshold:

KPDX - Portland Intl Arpt, OR, US

Updated at: 1818 UTC 19 Aug 2019
Latest TAF at: 1727 UTC 19 Aug 2019

TAF Board

Time1753Z 19/19Z 19/20Z 19/21Z 19/22Z 19/23Z 20/00Z 20/01Z 20/02Z 20/03Z 20/04Z 20/05Z 20/06Z 20/07Z>>
Type OBS PRVL PRVL PRVL PRVL PRVL PRVL PRVL PRVL PRVL PRVL PRVL PRVL PRVL
VIS 10 >6 >6 >6 >6 >6 >6 >6 >6 >6 >6 >6 >6 >6
CIG 37 35 -- -- -- -- -- -- -- -- -- -- -- --
Cover BKN OVC SCT SCT SCT SCT SKC SKC SKC SKC SKC SKC SKC SKC
FltCat VFR VFR VFR VFR VFR VFR VFR VFR VFR VFR VFR VFR VFR VFR
WX -- -- -- -- -- -- -- -- -- -- -- -- -- --
WDir 60 320 330 330 330 330 330 330 330 330 330 330 330 330
WSpd 4 6 4 4 4 4 7 7 7 7 7 7 7 7
WGst -- -- -- -- -- -- -- -- -- -- -- -- -- --

TDA Impact Legend

  None Marginal Slight Moderate High
Visibility (sm) >5 3≤X≤5 2≤X<3 0.5≤X<2 <0.5
Ceiling (100 ft) >30 10≤X≤30 9≤X<10 2≤X<9 <2
Wind Speed (kt) <15 15≤X<25 25≤X<30 ≥30
Wind Gust (kt) <15 15≤X<25 25≤X<35 ≥35
Weather No Wx Reported VCTS -TS,-FZRA TS,FZRA +TS,+FZRA
TAF
KPDX 191727Z 1918/2018 32006KT P6SM OVC035
  FM192000 33004KT P6SM SCT035
  FM200000 33007KT P6SM SKC
  FM201100 34004KT P6SM SCT025
  FM201700 17004KT P6SM SCT040


METAR
KPDX 191753Z 06004KT 10SM FEW022 BKN037 21/12 A3002 RMK AO2 SLP165 T02060122 10206 20161 51006
KPDX 191653Z 00000KT 10SM BKN037 18/12 A3002 RMK AO2 SLP164 T01830122
KPDX 191553Z 00000KT 10SM BKN036 17/12 A3001 RMK AO2 SLP162 T01720122
KPDX 191453Z 00000KT 10SM FEW015 BKN037 17/12 A3000 RMK AO2 SLP159 T01670122 51014

Radar Display
Forecast Discussion